createdAt,value
2023-05-16T00:00:59.651Z,3.70
2023-05-16T00:04:26.229Z,4.00
2023-05-16T00:07:52.937Z,3.50
2023-05-16T00:10:54.885Z,3.40
2023-05-16T00:13:30.592Z,3.50
2023-05-16T00:16:23.626Z,3.50
2023-05-16T00:19:32.999Z,4.00
2023-05-16T00:22:47.026Z,3.90
2023-05-16T00:25:29.059Z,3.70
2023-05-16T00:29:21.525Z,3.60
2023-05-16T00:32:22.544Z,3.50
2023-05-16T00:36:02.575Z,3.60
2023-05-16T00:39:50.590Z,4.20
2023-05-16T00:43:31.029Z,3.60
2023-05-16T00:47:10.089Z,3.40
2023-05-16T00:50:56.195Z,3.50
2023-05-16T00:54:44.192Z,3.80
2023-05-16T00:58:22.621Z,4.10
2023-05-16T01:02:11.744Z,3.40
2023-05-16T01:05:52.888Z,3.90
2023-05-16T01:09:30.819Z,3.90
2023-05-16T01:13:26.703Z,3.70
2023-05-16T01:16:56.053Z,3.80
2023-05-16T01:20:46.957Z,3.80
2023-05-16T01:24:13.255Z,3.70
2023-05-16T01:27:42.381Z,4.10
2023-05-16T01:31:07.513Z,4.00
2023-05-16T01:34:31.006Z,3.80
2023-05-16T01:38:28.003Z,3.70
2023-05-16T01:42:21.112Z,4.00
2023-05-16T01:46:12.164Z,3.90
2023-05-16T01:50:06.277Z,3.90
2023-05-16T01:53:48.714Z,3.70
2023-05-16T01:56:40.287Z,3.80
2023-05-16T01:59:35.429Z,4.40
2023-05-16T02:03:06.242Z,3.70
2023-05-16T02:06:45.512Z,4.00
2023-05-16T02:09:53.498Z,4.00
2023-05-16T02:13:16.877Z,3.80
2023-05-16T02:16:30.033Z,4.10
2023-05-16T02:20:08.488Z,4.30
2023-05-16T02:23:10.906Z,4.00
2023-05-16T02:26:15.806Z,4.10
2023-05-16T02:29:29.588Z,3.90
2023-05-16T02:32:50.008Z,3.90
2023-05-16T02:36:03.296Z,4.70
2023-05-16T02:39:08.755Z,3.60
2023-05-16T02:42:31.047Z,4.10
2023-05-16T02:45:55.770Z,4.10
2023-05-16T02:49:23.718Z,4.00
2023-05-16T02:53:11.738Z,4.20
2023-05-16T02:56:58.332Z,3.70
2023-05-16T03:00:19.953Z,3.90
2023-05-16T03:03:39.152Z,3.90
2023-05-16T03:07:17.557Z,4.10
2023-05-16T03:10:29.327Z,4.40
2023-05-16T03:14:01.586Z,4.80
2023-05-16T03:17:12.763Z,4.80
2023-05-16T03:20:45.881Z,4.50
2023-05-16T03:23:57.716Z,4.20
2023-05-16T03:27:35.415Z,4.40
2023-05-16T03:30:51.727Z,4.90
2023-05-16T03:34:29.605Z,4.00
2023-05-16T03:37:47.734Z,4.00
2023-05-16T03:41:37.814Z,4.20
2023-05-16T03:45:17.684Z,4.00
2023-05-16T03:48:48.547Z,3.90
2023-05-16T03:52:25.702Z,4.40
2023-05-16T03:55:14.364Z,4.40
2023-05-16T03:58:35.410Z,4.80
2023-05-16T04:01:17.440Z,4.90
2023-05-16T04:04:22.788Z,4.40
2023-05-16T04:07:47.206Z,5.00
2023-05-16T04:10:57.199Z,4.70
2023-05-16T04:14:11.924Z,4.70
2023-05-16T04:17:18.058Z,4.90
2023-05-16T04:21:08.052Z,5.30
2023-05-16T04:24:56.025Z,4.60
2023-05-16T04:28:43.990Z,4.90
2023-05-16T04:32:31.983Z,4.70
2023-05-16T04:36:20.052Z,4.10
2023-05-16T04:40:08.061Z,4.90
2023-05-16T04:43:35.089Z,4.30
2023-05-16T04:47:12.889Z,4.00
2023-05-16T04:50:27.602Z,4.50
2023-05-16T04:54:14.342Z,4.80
2023-05-16T04:57:53.342Z,5.20
2023-05-16T05:01:07.127Z,4.70
2023-05-16T05:04:04.548Z,4.70
2023-05-16T05:07:37.325Z,4.30
2023-05-16T05:11:04.358Z,4.40
2023-05-16T05:14:35.177Z,4.60
2023-05-16T05:17:57.395Z,3.90
2023-05-16T05:21:28.796Z,4.20
2023-05-16T05:24:42.000Z,3.90
2023-05-16T05:28:07.028Z,3.40
2023-05-16T05:31:12.625Z,3.10
2023-05-16T05:34:41.373Z,3.70
2023-05-16T05:38:12.394Z,3.50
2023-05-16T05:41:40.345Z,3.20
2023-05-16T05:44:50.939Z,3.20
2023-05-16T05:48:26.935Z,3.60
2023-05-16T05:52:07.574Z,3.60
2023-05-16T05:55:48.599Z,3.40
2023-05-16T05:59:28.173Z,3.40
2023-05-16T06:02:38.647Z,3.40
2023-05-16T06:05:48.108Z,3.70
2023-05-16T06:08:35.538Z,3.30
2023-05-16T06:11:54.559Z,3.60
2023-05-16T06:15:28.234Z,3.50
2023-05-16T06:19:16.661Z,3.20
2023-05-16T06:22:42.625Z,3.40
2023-05-16T06:26:12.437Z,3.60
2023-05-16T06:29:40.203Z,3.30
2023-05-16T06:33:27.220Z,3.70
2023-05-16T06:37:15.620Z,4.30
2023-05-16T06:40:43.617Z,3.90
2023-05-16T06:44:10.254Z,3.50
2023-05-16T06:47:13.847Z,3.80
2023-05-16T06:50:43.068Z,4.00
2023-05-16T06:54:31.087Z,4.00
2023-05-16T06:58:20.112Z,3.90
2023-05-16T07:02:08.099Z,4.10
2023-05-16T07:05:35.827Z,3.50
2023-05-16T07:09:13.377Z,4.30
2023-05-16T07:12:43.532Z,4.10
2023-05-16T07:16:16.837Z,4.50
2023-05-16T07:19:53.641Z,4.10
2023-05-16T07:23:14.792Z,3.80
2023-05-16T07:26:27.494Z,3.40
2023-05-16T07:30:15.902Z,3.40
2023-05-16T07:33:54.090Z,3.20
2023-05-16T07:37:13.884Z,3.50
2023-05-16T07:40:41.890Z,3.30
2023-05-16T07:44:29.988Z,3.70
2023-05-16T07:48:08.489Z,3.30
2023-05-16T07:51:45.419Z,3.40
2023-05-16T07:55:33.414Z,3.60
2023-05-16T07:59:10.623Z,3.50
2023-05-16T08:02:41.043Z,4.10
2023-05-16T08:06:21.052Z,3.90
2023-05-16T08:10:02.212Z,3.70
2023-05-16T08:13:39.141Z,3.90
2023-05-16T08:17:07.424Z,4.10
2023-05-16T08:20:36.560Z,3.90
2023-05-16T08:24:13.405Z,3.80
2023-05-16T08:28:01.378Z,4.20
2023-05-16T08:31:39.262Z,4.70
2023-05-16T08:35:19.401Z,4.00
2023-05-16T08:39:00.410Z,4.00
2023-05-16T08:42:48.728Z,4.20
2023-05-16T08:46:26.182Z,4.30
2023-05-16T08:50:04.297Z,4.10
2023-05-16T08:53:50.055Z,4.50
2023-05-16T08:57:30.705Z,4.50
2023-05-16T09:01:01.411Z,4.20
2023-05-16T09:04:31.759Z,5.00
2023-05-16T09:08:08.925Z,4.60
2023-05-16T09:11:50.247Z,4.50
2023-05-16T09:15:22.358Z,4.60
2023-05-16T09:19:00.218Z,4.50
2023-05-16T09:22:54.580Z,4.70
2023-05-16T09:26:32.153Z,4.70
2023-05-16T09:30:44.168Z,4.60
2023-05-16T09:34:23.500Z,4.50
2023-05-16T09:38:00.710Z,4.30
2023-05-16T09:41:37.782Z,4.40
2023-05-16T09:45:34.425Z,4.60
2023-05-16T09:49:04.641Z,4.30
2023-05-16T09:52:42.646Z,4.30
2023-05-16T09:56:25.425Z,4.10
2023-05-16T10:00:10.234Z,4.20
2023-05-16T10:04:00.318Z,4.20
2023-05-16T10:07:42.059Z,3.70
2023-05-16T10:11:10.189Z,4.60
2023-05-16T10:14:55.947Z,3.70
2023-05-16T10:18:39.647Z,4.10
2023-05-16T10:22:21.432Z,4.00
2023-05-16T10:26:24.674Z,3.80
2023-05-16T10:30:05.903Z,4.10
2023-05-16T10:33:40.882Z,3.90
2023-05-16T10:37:14.412Z,4.00
2023-05-16T10:40:27.281Z,3.80
2023-05-16T10:44:09.176Z,4.00
2023-05-16T10:47:28.370Z,3.70
2023-05-16T10:51:02.985Z,3.60
2023-05-16T10:54:51.855Z,3.90
2023-05-16T10:58:39.951Z,4.10
2023-05-16T11:02:25.102Z,3.50
2023-05-16T11:09:42.074Z,4.10
2023-05-16T11:12:57.176Z,3.70
2023-05-16T11:16:37.955Z,3.80
2023-05-16T11:20:09.215Z,3.90
2023-05-16T11:23:06.448Z,4.70
2023-05-16T11:26:30.738Z,5.00
2023-05-16T11:29:43.147Z,5.60
2023-05-16T11:33:17.222Z,4.90
2023-05-16T11:36:50.407Z,4.80
2023-05-16T11:40:09.206Z,5.10
2023-05-16T11:43:37.099Z,4.60
2023-05-16T11:47:02.734Z,3.90
2023-05-16T11:50:41.785Z,3.70
2023-05-16T11:54:01.984Z,3.80
2023-05-16T11:57:22.907Z,3.60
2023-05-16T12:00:35.383Z,3.60
2023-05-16T12:03:39.720Z,3.70
2023-05-16T12:06:29.963Z,3.70
2023-05-16T12:09:37.757Z,3.40
2023-05-16T12:13:01.944Z,3.40
2023-05-16T12:15:53.015Z,3.60
2023-05-16T12:19:13.607Z,3.90
2023-05-16T12:22:58.839Z,3.70
2023-05-16T12:25:47.942Z,3.60
2023-05-16T12:29:27.185Z,3.50
2023-05-16T12:33:17.131Z,3.40
2023-05-16T12:36:39.026Z,4.00
2023-05-16T12:39:57.193Z,4.00
2023-05-16T12:43:36.572Z,4.00
2023-05-16T12:46:51.376Z,3.60
2023-05-16T12:50:37.979Z,3.60
2023-05-16T12:54:10.096Z,4.00
2023-05-16T12:57:11.432Z,3.70
2023-05-16T13:00:37.495Z,3.70
2023-05-16T13:03:49.614Z,3.70
2023-05-16T13:07:17.865Z,3.50
2023-05-16T13:10:46.638Z,3.50
2023-05-16T13:15:24.183Z,3.60
2023-05-16T13:18:37.102Z,3.30
2023-05-16T13:22:33.404Z,3.30
2023-05-16T13:26:33.808Z,3.50
2023-05-16T13:30:22.011Z,3.70
2023-05-16T13:34:12.186Z,3.60
2023-05-16T13:37:48.790Z,3.80
2023-05-16T13:41:27.819Z,3.70
2023-05-16T13:45:26.536Z,3.50
2023-05-16T13:48:33.532Z,3.90
2023-05-16T13:52:01.961Z,3.60
2023-05-16T13:55:42.717Z,3.50
2023-05-16T13:59:01.152Z,3.90
2023-05-16T14:02:33.645Z,4.00
2023-05-16T14:06:01.652Z,4.10
2023-05-16T14:09:35.510Z,6.10
2023-05-16T14:16:42.066Z,4.90
2023-05-16T14:20:09.683Z,4.50
2023-05-16T14:23:57.936Z,3.70
2023-05-16T14:27:33.021Z,3.40
2023-05-16T14:30:57.663Z,3.90
2023-05-16T14:34:25.643Z,3.40
2023-05-16T14:38:03.108Z,4.00
2023-05-16T14:41:13.379Z,3.40
2023-05-16T14:44:38.144Z,3.50
2023-05-16T14:48:01.956Z,3.20
2023-05-16T14:51:27.131Z,4.00
2023-05-16T14:54:38.304Z,3.50
2023-05-16T14:58:00.443Z,3.60
2023-05-16T15:01:16.386Z,3.80
2023-05-16T15:04:47.351Z,3.70
2023-05-16T15:08:25.619Z,3.20
2023-05-16T15:11:34.527Z,3.20
2023-05-16T15:14:58.408Z,3.30
2023-05-16T15:18:29.884Z,3.60
2023-05-16T15:22:09.066Z,3.60
2023-05-16T15:25:57.257Z,3.60
2023-05-16T15:29:44.299Z,3.80
2023-05-16T15:33:05.772Z,3.90
2023-05-16T15:36:31.000Z,3.40
2023-05-16T15:40:22.301Z,3.50
2023-05-16T15:44:07.422Z,3.40
2023-05-16T15:47:26.271Z,3.50
2023-05-16T15:51:03.965Z,3.60
2023-05-16T15:54:34.276Z,3.40
2023-05-16T15:58:05.288Z,3.50
2023-05-16T16:01:44.033Z,3.40
2023-05-16T16:04:54.314Z,3.10
2023-05-16T16:08:36.308Z,4.10
2023-05-16T16:11:46.668Z,3.60
2023-05-16T16:15:31.054Z,3.50
2023-05-16T16:19:07.316Z,3.50
2023-05-16T16:22:48.130Z,3.40
2023-05-16T16:26:08.918Z,3.60
2023-05-16T16:29:47.727Z,3.50
2023-05-16T16:32:49.004Z,3.50
2023-05-16T16:36:19.858Z,3.50
2023-05-16T16:39:50.929Z,3.60
2023-05-16T16:43:27.091Z,3.60
2023-05-16T16:46:56.252Z,3.60
2023-05-16T16:53:44.253Z,3.40
2023-05-16T16:57:03.430Z,3.20
2023-05-16T17:00:51.967Z,3.30
2023-05-16T17:04:26.944Z,3.00
2023-05-16T17:07:59.249Z,3.00
2023-05-16T17:11:28.399Z,3.80
2023-05-16T17:14:54.335Z,3.40
2023-05-16T17:18:29.112Z,3.50
2023-05-16T17:21:59.269Z,3.10
2023-05-16T17:25:08.088Z,3.10
2023-05-16T17:28:48.349Z,3.60
2023-05-16T17:32:36.537Z,3.30
2023-05-16T17:36:14.656Z,3.20
2023-05-16T17:39:54.379Z,3.40
2023-05-16T17:43:42.276Z,3.30
2023-05-16T17:47:26.182Z,3.30
2023-05-16T17:50:43.849Z,3.40
2023-05-16T17:53:51.891Z,3.20
2023-05-16T17:57:06.240Z,3.70
2023-05-16T18:00:54.504Z,3.70
2023-05-16T18:04:26.550Z,3.80
2023-05-16T18:07:38.063Z,4.20
2023-05-16T18:10:54.298Z,4.90
2023-05-16T18:14:45.117Z,4.70
2023-05-16T18:18:40.251Z,4.70
2023-05-16T18:22:31.976Z,3.70
2023-05-16T18:26:20.391Z,3.50
2023-05-16T18:30:08.184Z,3.50
2023-05-16T18:33:56.727Z,3.60
2023-05-16T18:37:25.348Z,4.00
2023-05-16T18:41:14.103Z,4.00
2023-05-16T18:44:31.447Z,3.50
2023-05-16T18:47:59.167Z,3.70
2023-05-16T18:51:27.358Z,3.40
2023-05-16T18:54:38.574Z,3.80
2023-05-16T18:57:50.231Z,3.80
2023-05-16T19:01:21.017Z,3.70
2023-05-16T19:04:35.276Z,3.80
2023-05-16T19:07:57.852Z,4.00
2023-05-16T19:11:19.037Z,4.00
2023-05-16T19:14:50.484Z,4.20
2023-05-16T19:18:39.488Z,3.60
2023-05-16T19:22:09.766Z,3.60
2023-05-16T19:25:49.597Z,3.60
2023-05-16T19:29:41.730Z,3.90
2023-05-16T19:32:56.493Z,4.00
2023-05-16T19:36:19.269Z,3.90
2023-05-16T19:40:07.427Z,3.70
2023-05-16T19:43:41.677Z,3.90
2023-05-16T19:46:47.730Z,3.60
2023-05-16T19:50:15.963Z,3.70
2023-05-16T19:53:10.084Z,3.60
2023-05-16T19:55:38.302Z,4.00
2023-05-16T19:58:49.556Z,3.70
2023-05-16T20:02:21.170Z,3.90
2023-05-16T20:06:08.251Z,3.40
2023-05-16T20:09:22.525Z,4.00
2023-05-16T20:12:49.881Z,3.60
2023-05-16T20:16:05.683Z,3.80
2023-05-16T20:19:36.590Z,4.10
2023-05-16T20:23:06.024Z,3.80
2023-05-16T20:26:39.596Z,3.90
2023-05-16T20:30:07.017Z,3.70
2023-05-16T20:33:49.207Z,3.70
2023-05-16T20:37:31.673Z,4.30
2023-05-16T20:41:12.548Z,4.80
2023-05-16T20:45:01.006Z,4.10
2023-05-16T20:48:13.463Z,4.10
2023-05-16T20:51:41.684Z,4.10
2023-05-16T20:55:26.760Z,4.10
2023-05-16T20:58:55.004Z,4.50
2023-05-16T21:02:06.214Z,4.00
2023-05-16T21:05:41.230Z,4.40
2023-05-16T21:09:06.308Z,3.90
2023-05-16T21:12:02.684Z,4.10
2023-05-16T21:15:06.159Z,4.00
2023-05-16T21:17:52.177Z,4.50
2023-05-16T21:24:18.500Z,4.20
2023-05-16T21:27:25.902Z,3.80
2023-05-16T21:31:15.542Z,4.30
2023-05-16T21:33:56.493Z,4.10
2023-05-16T21:37:01.563Z,3.90
2023-05-16T21:39:42.774Z,4.30
2023-05-16T21:43:14.240Z,3.90
2023-05-16T21:46:35.372Z,4.50
2023-05-16T21:50:03.329Z,4.00
2023-05-16T21:53:08.673Z,4.00
2023-05-16T21:56:32.522Z,3.80
2023-05-16T21:59:53.767Z,4.00
2023-05-16T22:03:21.055Z,3.90
2023-05-16T22:05:54.410Z,4.00
2023-05-16T22:08:23.963Z,4.40
2023-05-16T22:11:11.736Z,4.20
2023-05-16T22:13:47.426Z,3.90
2023-05-16T22:16:58.239Z,4.10
2023-05-16T22:20:09.093Z,4.20
2023-05-16T22:23:31.290Z,3.90
2023-05-16T22:29:35.177Z,3.90
2023-05-16T22:32:43.207Z,3.80
2023-05-16T22:36:06.742Z,4.60
2023-05-16T22:39:15.157Z,4.40
2023-05-16T22:43:03.246Z,4.50
2023-05-16T22:46:51.337Z,4.30
2023-05-16T22:50:40.875Z,4.40
2023-05-16T22:54:28.855Z,4.30
2023-05-16T22:58:16.838Z,4.20
2023-05-16T23:01:53.870Z,4.80
2023-05-16T23:05:24.424Z,4.90
2023-05-16T23:08:46.989Z,5.00
2023-05-16T23:12:21.483Z,6.10
2023-05-16T23:15:59.703Z,6.90
2023-05-16T23:19:30.836Z,8.00
2023-05-16T23:23:11.572Z,9.00
2023-05-16T23:26:27.802Z,10.20
2023-05-16T23:30:05.671Z,10.60
2023-05-16T23:33:26.379Z,10.40
2023-05-16T23:36:46.115Z,8.20
2023-05-16T23:39:58.632Z,6.40
2023-05-16T23:43:06.673Z,5.30
2023-05-16T23:46:17.576Z,4.70
2023-05-16T23:49:44.730Z,4.40
2023-05-16T23:53:02.705Z,4.50
2023-05-16T23:56:50.882Z,4.30
